Time;durP1;ratioP1;P1;durP2;ratioP2;P2;SDS_P1;SDS_P2;PMS_P1;PMS_P2;Temp;Humidity;BMP_temperature;BMP_pressure;BME280_temperature;BME280_humidity;BME280_pressure;Samples;Min_cycle;Max_cycle;Signal;HPM_P1;HPM_P2
2022/04/20 00:01:48;;;;;;;13.35;6.40;;;;;;;;;;5053236;28;20021;-74
2022/04/20 00:04:14;;;;;;;12.98;6.70;;;;;;;;;;5053014;28;20099;-73
2022/04/20 00:06:40;;;;;;;14.27;6.90;;;;;;;;;;5053169;28;20047;-74
2022/04/20 00:09:06;;;;;;;13.63;6.85;;;;;;;;;;5053010;28;20387;-73
2022/04/20 00:11:32;;;;;;;13.38;6.43;;;;;;;;;;5053049;28;20120;-73
2022/04/20 00:13:58;;;;;;;16.00;6.65;;;;;;;;;;5052937;28;20021;-74
2022/04/20 00:16:24;;;;;;;14.15;6.85;;;;;;;;;;5053124;28;20027;-74
2022/04/20 00:18:50;;;;;;;15.05;6.57;;;;;;;;;;5053111;28;20123;-73
2022/04/20 00:21:16;;;;;;;15.35;6.65;;;;;;;;;;5052816;28;20029;-74
2022/04/20 00:23:42;;;;;;;14.13;6.68;;;;;;;;;;5052996;28;20087;-73
2022/04/20 00:26:08;;;;;;;15.10;7.93;;;;;;;;;;5052723;28;20033;-73
2022/04/20 00:28:34;;;;;;;13.60;6.47;;;;;;;;;;5051439;28;20433;-74
2022/04/20 00:31:00;;;;;;;14.18;6.53;;;;;;;;;;5052720;28;20048;-74
2022/04/20 00:33:26;;;;;;;12.45;6.75;;;;;;;;;;5052838;28;20029;-73
2022/04/20 00:35:52;;;;;;;14.73;6.95;;;;;;;;;;5052523;28;20025;-74
2022/04/20 00:38:19;;;;;;;11.98;6.38;;;;;;;;;;5052738;28;20021;-74
2022/04/20 00:40:46;;;;;;;15.60;6.25;;;;;;;;;;5052381;28;20028;-73
2022/04/20 00:43:12;;;;;;;16.42;7.18;;;;;;;;;;5052171;28;20033;-74
2022/04/20 00:45:42;;;;;;;12.27;6.53;;;;;;;;;;5052491;28;20158;-74
2022/04/20 00:48:10;;;;;;;17.23;6.60;;;;;;;;;;5052554;28;20371;-73
2022/04/20 00:50:36;;;;;;;15.45;6.30;;;;;;;;;;5052358;28;20032;-73
2022/04/20 00:53:02;;;;;;;13.50;6.45;;;;;;;;;;5052302;28;20021;-73
2022/04/20 00:55:28;;;;;;;12.77;5.90;;;;;;;;;;5052572;28;20440;-74
2022/04/20 00:57:54;;;;;;;14.93;6.75;;;;;;;;;;5052265;28;20021;-74
2022/04/20 01:00:21;;;;;;;12.45;6.35;;;;;;;;;;5052328;28;20078;-74
2022/04/20 01:02:47;;;;;;;16.05;6.80;;;;;;;;;;5052131;28;20340;-73
2022/04/20 01:05:13;;;;;;;14.68;6.75;;;;;;;;;;5052052;28;20431;-73
2022/04/20 01:07:41;;;;;;;15.07;7.00;;;;;;;;;;5051904;28;20526;-74
2022/04/20 01:10:07;;;;;;;14.82;6.78;;;;;;;;;;5051918;28;20037;-74
2022/04/20 01:12:33;;;;;;;12.55;6.38;;;;;;;;;;5051842;28;20104;-74
2022/04/20 01:14:59;;;;;;;14.63;6.85;;;;;;;;;;5051882;28;20021;-73
2022/04/20 01:17:25;;;;;;;13.73;7.07;;;;;;;;;;5051981;28;20025;-73
2022/04/20 01:19:52;;;;;;;12.65;6.07;;;;;;;;;;5051777;28;20021;-74
2022/04/20 01:22:18;;;;;;;13.70;6.43;;;;;;;;;;5051805;28;20364;-74
2022/04/20 01:24:44;;;;;;;13.57;7.00;;;;;;;;;;5051631;28;20040;-74
2022/04/20 01:27:10;;;;;;;11.90;6.28;;;;;;;;;;5051576;28;20033;-74
2022/04/20 01:29:37;;;;;;;14.60;6.43;;;;;;;;;;5051704;28;20040;-73
2022/04/20 01:32:03;;;;;;;12.38;6.03;;;;;;;;;;5051551;28;20505;-74
2022/04/20 01:34:29;;;;;;;12.98;6.18;;;;;;;;;;5051718;28;20456;-73
2022/04/20 01:36:55;;;;;;;11.77;5.93;;;;;;;;;;5051537;28;20459;-73
2022/04/20 01:39:21;;;;;;;15.77;6.13;;;;;;;;;;5051619;28;20025;-73
2022/04/20 01:41:47;;;;;;;14.40;6.68;;;;;;;;;;5051351;28;20017;-73
2022/04/20 01:44:13;;;;;;;11.60;6.43;;;;;;;;;;5051637;28;20086;-73
2022/04/20 01:46:39;;;;;;;12.35;5.85;;;;;;;;;;5050293;28;20368;-73
2022/04/20 01:49:05;;;;;;;9.90;5.38;;;;;;;;;;5051513;28;20078;-74
2022/04/20 01:51:47;;;;;;;12.38;6.05;;;;;;;;;;5051478;28;20459;-73
2022/04/20 01:54:13;;;;;;;10.60;5.10;;;;;;;;;;5052429;28;20462;-73
2022/04/20 01:56:39;;;;;;;14.82;5.90;;;;;;;;;;5055445;28;20471;-73
2022/04/20 01:59:05;;;;;;;14.35;5.97;;;;;;;;;;5055605;28;20029;-73
2022/04/20 02:04:18;;;;;;;10.85;5.65;;;;;;;;;;5033064;28;20049;-73
2022/04/20 02:06:44;;;;;;;15.52;5.72;;;;;;;;;;5033081;28;20080;-73
2022/04/20 02:09:10;;;;;;;14.18;5.35;;;;;;;;;;5033054;28;20049;-73
2022/04/20 02:11:36;;;;;;;13.02;5.65;;;;;;;;;;5032844;28;20569;-73
2022/04/20 02:14:02;;;;;;;10.65;5.50;;;;;;;;;;5032888;28;20029;-73
2022/04/20 02:16:28;;;;;;;10.00;5.20;;;;;;;;;;5032926;28;20046;-73
2022/04/20 02:18:54;;;;;;;8.25;4.82;;;;;;;;;;5032962;28;20033;-73
2022/04/20 02:21:20;;;;;;;9.63;5.07;;;;;;;;;;5032606;28;20064;-74
2022/04/20 02:23:46;;;;;;;17.40;4.78;;;;;;;;;;5032818;28;20033;-73
2022/04/20 02:26:12;;;;;;;9.13;5.07;;;;;;;;;;5032760;28;20044;-73
2022/04/20 02:28:38;;;;;;;10.88;4.68;;;;;;;;;;5032808;28;20378;-73
2022/04/20 02:31:04;;;;;;;7.68;4.18;;;;;;;;;;5032609;28;20406;-73
2022/04/20 02:33:30;;;;;;;11.60;4.72;;;;;;;;;;5032880;28;20034;-73
2022/04/20 02:35:59;;;;;;;8.98;4.65;;;;;;;;;;5032459;28;20392;-73
2022/04/20 02:38:27;;;;;;;7.90;4.00;;;;;;;;;;5032695;28;20033;-73
2022/04/20 02:40:53;;;;;;;8.65;4.30;;;;;;;;;;5033147;28;20399;-73
2022/04/20 02:43:19;;;;;;;8.15;4.20;;;;;;;;;;5053469;28;20040;-73
2022/04/20 02:45:45;;;;;;;8.80;4.43;;;;;;;;;;5054658;28;20075;-73
2022/04/20 02:48:11;;;;;;;11.82;4.22;;;;;;;;;;5054755;28;20033;-73
2022/04/20 02:50:37;;;;;;;9.55;4.68;;;;;;;;;;5054590;28;20036;-73
2022/04/20 02:53:03;;;;;;;10.43;4.50;;;;;;;;;;5053285;28;20089;-73
2022/04/20 02:55:29;;;;;;;7.82;4.13;;;;;;;;;;5054401;28;20024;-73
2022/04/20 02:57:56;;;;;;;7.05;4.47;;;;;;;;;;5054423;28;20151;-74
2022/04/20 03:00:22;;;;;;;9.57;4.13;;;;;;;;;;5054482;28;20029;-73
2022/04/20 03:02:48;;;;;;;7.15;4.30;;;;;;;;;;5054340;28;20514;-74
2022/04/20 03:05:15;;;;;;;7.57;4.20;;;;;;;;;;5054274;28;20033;-73
2022/04/20 03:07:41;;;;;;;7.55;3.92;;;;;;;;;;5054254;28;20029;-73
2022/04/20 03:10:07;;;;;;;8.52;4.10;;;;;;;;;;5054148;28;20032;-73
2022/04/20 03:12:33;;;;;;;8.82;4.10;;;;;;;;;;5054285;28;20037;-74
2022/04/20 03:14:59;;;;;;;8.23;4.47;;;;;;;;;;5054153;28;20067;-73
2022/04/20 03:17:25;;;;;;;7.75;4.15;;;;;;;;;;5054181;28;20513;-73
2022/04/20 03:19:51;;;;;;;11.63;3.95;;;;;;;;;;5054061;28;20023;-73
2022/04/20 03:22:18;;;;;;;10.65;3.85;;;;;;;;;;5054063;28;20021;-73
2022/04/20 03:24:44;;;;;;;10.57;4.10;;;;;;;;;;5053925;28;20033;-73
2022/04/20 03:27:10;;;;;;;8.57;4.05;;;;;;;;;;5053972;28;20075;-73
2022/04/20 03:29:37;;;;;;;8.98;4.40;;;;;;;;;;5052416;28;20032;-74
2022/04/20 03:32:08;;;;;;;8.02;3.95;;;;;;;;;;5053792;28;20029;-74
2022/04/20 03:34:34;;;;;;;8.37;4.17;;;;;;;;;;5053965;28;20013;-73
2022/04/20 03:37:00;;;;;;;12.73;4.20;;;;;;;;;;5053782;28;20251;-73
2022/04/20 03:39:26;;;;;;;8.35;4.00;;;;;;;;;;5053776;28;20033;-73
2022/04/20 03:41:52;;;;;;;7.22;3.92;;;;;;;;;;5053482;28;20061;-73
2022/04/20 03:44:19;;;;;;;8.43;4.00;;;;;;;;;;5053581;28;20021;-73
2022/04/20 03:46:45;;;;;;;5.40;3.45;;;;;;;;;;5053677;28;20742;-74
2022/04/20 03:49:11;;;;;;;7.38;3.80;;;;;;;;;;5053470;28;20043;-73
2022/04/20 03:51:37;;;;;;;6.70;3.55;;;;;;;;;;5053461;28;20463;-73
2022/04/20 03:54:03;;;;;;;17.92;3.72;;;;;;;;;;5053429;28;20036;-73
2022/04/20 03:57:03;;;;;;;8.07;4.22;;;;;;;;;;5053283;28;20075;-74
2022/04/20 03:59:15;;;;;;;7.45;4.00;;;;;;;;;;5053240;28;20033;-73
2022/04/20 04:01:41;;;;;;;5.95;3.67;;;;;;;;;;5051972;28;20106;-73
2022/04/20 04:04:08;;;;;;;7.32;3.40;;;;;;;;;;5053207;28;20067;-73
2022/04/20 04:06:34;;;;;;;4.90;3.03;;;;;;;;;;5053189;28;20029;-74
2022/04/20 04:09:00;;;;;;;6.93;3.67;;;;;;;;;;5053158;28;20120;-73
2022/04/20 04:11:26;;;;;;;6.85;3.35;;;;;;;;;;5053044;28;20028;-73
2022/04/20 04:13:52;;;;;;;5.82;3.33;;;;;;;;;;5053112;28;20033;-73
2022/04/20 04:16:18;;;;;;;7.32;3.40;;;;;;;;;;5052981;28;20021;-73
2022/04/20 04:18:44;;;;;;;5.43;2.85;;;;;;;;;;5052641;28;20087;-74
2022/04/20 04:21:11;;;;;;;8.20;2.90;;;;;;;;;;5052794;28;20031;-73
2022/04/20 04:23:37;;;;;;;5.00;3.00;;;;;;;;;;5052862;28;20383;-74
2022/04/20 04:26:03;;;;;;;10.38;3.10;;;;;;;;;;5052803;28;20032;-73
2022/04/20 04:28:29;;;;;;;9.52;3.10;;;;;;;;;;5052858;28;20025;-73
2022/04/20 04:30:55;;;;;;;7.22;3.15;;;;;;;;;;5052692;28;20021;-73
2022/04/20 04:33:21;;;;;;;5.10;2.92;;;;;;;;;;5052758;28;20162;-73
2022/04/20 04:35:47;;;;;;;5.72;2.88;;;;;;;;;;5052322;28;20040;-73
2022/04/20 04:38:15;;;;;;;6.82;3.10;;;;;;;;;;5052664;28;20017;-73
2022/04/20 04:40:41;;;;;;;16.17;3.15;;;;;;;;;;5052631;28;20336;-73
2022/04/20 04:43:07;;;;;;;10.45;3.10;;;;;;;;;;5052420;28;20020;-73
2022/04/20 04:48:36;;;;;;;11.13;3.50;;;;;;;;;;5052600;28;20040;-73
2022/04/20 04:51:06;;;;;;;7.68;2.58;;;;;;;;;;5052380;28;20025;-73
2022/04/20 04:53:32;;;;;;;4.50;2.45;;;;;;;;;;5052479;28;20035;-73
2022/04/20 04:55:58;;;;;;;4.45;2.58;;;;;;;;;;5052295;28;20030;-73
2022/04/20 04:58:24;;;;;;;5.15;2.80;;;;;;;;;;5052385;28;20586;-73
2022/04/20 05:00:50;;;;;;;6.93;2.50;;;;;;;;;;5052280;28;20648;-73
2022/04/20 05:03:17;;;;;;;7.32;2.38;;;;;;;;;;5052169;28;20418;-73
2022/04/20 05:05:49;;;;;;;7.00;2.10;;;;;;;;;;5050715;28;20075;-73
2022/04/20 05:08:15;;;;;;;8.68;2.80;;;;;;;;;;5052174;28;20032;-73
2022/04/20 05:10:41;;;;;;;5.82;2.67;;;;;;;;;;5052138;28;20108;-73
2022/04/20 05:13:08;;;;;;;5.53;2.40;;;;;;;;;;5052187;28;20021;-74
2022/04/20 05:15:34;;;;;;;5.55;2.60;;;;;;;;;;5051842;28;20035;-73
2022/04/20 05:18:01;;;;;;;12.55;2.60;;;;;;;;;;5052176;28;20458;-73
2022/04/20 05:20:27;;;;;;;12.45;2.60;;;;;;;;;;5051842;28;20025;-73
2022/04/20 05:22:53;;;;;;;5.55;2.22;;;;;;;;;;5051834;28;20028;-73
2022/04/20 05:25:19;;;;;;;4.88;2.65;;;;;;;;;;5051835;28;20025;-74
2022/04/20 05:27:46;;;;;;;3.97;2.55;;;;;;;;;;5051708;28;20479;-73
2022/04/20 05:30:15;;;;;;;7.45;2.65;;;;;;;;;;5050912;28;20025;-73
2022/04/20 05:32:42;;;;;;;6.70;2.25;;;;;;;;;;5032010;28;20022;-73
2022/04/20 05:35:08;;;;;;;5.68;2.33;;;;;;;;;;5031854;28;20100;-74
2022/04/20 05:43:04;;;;;;;6.75;2.47;;;;;;;;;;5048468;28;20089;-73
2022/04/20 05:45:30;;;;;;;5.38;2.40;;;;;;;;;;5051593;28;20059;-73
2022/04/20 05:47:58;;;;;;;4.82;2.33;;;;;;;;;;5051731;28;20021;-73
2022/04/20 05:50:24;;;;;;;6.53;2.40;;;;;;;;;;5050181;28;20391;-73
2022/04/20 05:52:50;;;;;;;5.88;2.20;;;;;;;;;;5051466;28;20470;-73
2022/04/20 05:55:17;;;;;;;5.00;2.17;;;;;;;;;;5051723;28;20029;-74
2022/04/20 05:57:47;;;;;;;3.05;2.05;;;;;;;;;;5049959;28;20037;-73
2022/04/20 06:00:13;;;;;;;5.45;2.05;;;;;;;;;;5051494;28;20063;-73
2022/04/20 06:02:39;;;;;;;7.47;2.15;;;;;;;;;;5051433;28;20103;-74
2022/04/20 06:05:05;;;;;;;3.15;2.00;;;;;;;;;;5051421;28;20487;-73
2022/04/20 06:07:33;;;;;;;6.93;2.28;;;;;;;;;;5051533;28;20032;-74
2022/04/20 06:09:59;;;;;;;3.65;1.90;;;;;;;;;;5051293;28;20029;-73
2022/04/20 06:12:25;;;;;;;9.65;1.92;;;;;;;;;;5051372;28;20399;-73
2022/04/20 06:14:51;;;;;;;7.85;2.42;;;;;;;;;;5051318;28;20029;-73
2022/04/20 06:17:17;;;;;;;5.63;2.03;;;;;;;;;;5050065;28;20017;-73
2022/04/20 06:19:43;;;;;;;6.00;2.30;;;;;;;;;;5051237;28;20025;-73
2022/04/20 06:22:09;;;;;;;4.10;2.00;;;;;;;;;;5051286;28;20032;-74
2022/04/20 06:24:35;;;;;;;6.15;2.10;;;;;;;;;;5051314;28;20443;-74
2022/04/20 06:27:02;;;;;;;5.72;1.98;;;;;;;;;;5051056;28;20436;-74
2022/04/20 06:29:28;;;;;;;13.02;2.03;;;;;;;;;;5051202;28;20025;-73
2022/04/20 06:31:54;;;;;;;4.35;2.30;;;;;;;;;;5051163;28;20029;-74
2022/04/20 06:34:20;;;;;;;7.10;2.20;;;;;;;;;;5051155;28;20040;-73
2022/04/20 06:36:46;;;;;;;5.97;2.05;;;;;;;;;;5051092;28;20025;-73
2022/04/20 06:39:12;;;;;;;5.80;2.10;;;;;;;;;;5051243;28;20156;-73
2022/04/20 06:41:38;;;;;;;5.05;1.90;;;;;;;;;;5053993;28;20017;-73
2022/04/20 06:44:04;;;;;;;6.43;2.15;;;;;;;;;;5054798;28;20341;-74
2022/04/20 06:46:30;;;;;;;4.85;2.00;;;;;;;;;;5054821;28;20115;-74
2022/04/20 06:48:56;;;;;;;4.25;1.75;;;;;;;;;;5054725;28;20035;-73
2022/04/20 06:51:22;;;;;;;10.90;2.05;;;;;;;;;;5054494;28;20036;-73
2022/04/20 06:59:20;;;;;;;4.95;1.77;;;;;;;;;;5054417;28;20036;-73
2022/04/20 07:01:46;;;;;;;4.07;1.90;;;;;;;;;;5054456;28;20025;-74
2022/04/20 07:04:12;;;;;;;7.95;2.25;;;;;;;;;;5054288;28;20056;-73
2022/04/20 07:06:38;;;;;;;4.88;1.90;;;;;;;;;;5054348;28;20494;-73
2022/04/20 07:09:04;;;;;;;8.77;2.55;;;;;;;;;;5054220;28;20139;-73
2022/04/20 07:11:30;;;;;;;3.92;1.85;;;;;;;;;;5054237;28;20025;-74
2022/04/20 07:13:56;;;;;;;7.47;1.80;;;;;;;;;;5054085;28;20021;-73
2022/04/20 07:16:23;;;;;;;5.38;1.80;;;;;;;;;;5054165;28;20483;-73
2022/04/20 07:18:49;;;;;;;3.28;1.70;;;;;;;;;;5054165;28;20025;-73
2022/04/20 07:21:15;;;;;;;4.25;1.88;;;;;;;;;;5053873;28;20024;-74
2022/04/20 07:23:41;;;;;;;3.08;1.80;;;;;;;;;;5054063;28;20029;-74
2022/04/20 07:26:08;;;;;;;3.65;1.73;;;;;;;;;;5053843;28;20025;-74
2022/04/20 07:28:34;;;;;;;5.90;1.98;;;;;;;;;;5052631;28;20395;-74
2022/04/20 07:31:02;;;;;;;3.20;1.92;;;;;;;;;;5053817;28;20025;-74
2022/04/20 07:33:28;;;;;;;7.53;1.73;;;;;;;;;;5053805;28;20083;-74
2022/04/20 07:35:54;;;;;;;3.40;1.67;;;;;;;;;;5053707;28;20028;-74
2022/04/20 07:38:24;;;;;;;6.10;1.70;;;;;;;;;;5053885;28;20024;-74
2022/04/20 07:40:50;;;;;;;4.72;2.67;;;;;;;;;;5053685;28;20025;-74
2022/04/20 07:43:16;;;;;;;4.82;1.77;;;;;;;;;;5053574;28;20025;-74
2022/04/20 07:45:42;;;;;;;2.58;1.55;;;;;;;;;;5053518;28;20074;-74
2022/04/20 07:48:08;;;;;;;8.77;1.90;;;;;;;;;;5053675;28;20025;-74
2022/04/20 07:50:35;;;;;;;6.75;1.77;;;;;;;;;;5053432;28;20021;-74
2022/04/20 07:53:03;;;;;;;7.03;1.77;;;;;;;;;;5050890;28;20032;-73
2022/04/20 07:55:31;;;;;;;6.95;2.70;;;;;;;;;;5053803;28;20024;-74
2022/04/20 07:57:58;;;;;;;2.90;1.80;;;;;;;;;;5053302;28;20083;-74
2022/04/20 08:00:24;;;;;;;3.17;1.60;;;;;;;;;;5053308;28;20407;-74
2022/04/20 08:02:51;;;;;;;5.53;2.10;;;;;;;;;;5053274;28;20145;-74
2022/04/20 08:05:19;;;;;;;4.30;1.83;;;;;;;;;;5053329;28;20029;-75
2022/04/20 08:07:45;;;;;;;3.75;1.50;;;;;;;;;;5051821;28;20025;-74
2022/04/20 08:10:12;;;;;;;4.70;1.75;;;;;;;;;;5053144;28;20055;-74
2022/04/20 08:12:38;;;;;;;8.73;1.83;;;;;;;;;;5053057;28;20025;-74
2022/04/20 08:15:05;;;;;;;8.15;1.73;;;;;;;;;;5052899;28;20510;-74
2022/04/20 08:17:32;;;;;;;4.10;1.80;;;;;;;;;;5051626;28;20032;-73
2022/04/20 08:19:58;;;;;;;7.50;1.92;;;;;;;;;;5052989;28;20028;-74
2022/04/20 08:22:24;;;;;;;6.13;1.80;;;;;;;;;;5052932;28;20036;-74
2022/04/20 08:24:51;;;;;;;8.45;1.70;;;;;;;;;;5052838;28;20483;-74
2022/04/20 08:27:17;;;;;;;8.57;2.03;;;;;;;;;;5051327;28;20025;-74
2022/04/20 08:29:45;;;;;;;3.85;1.80;;;;;;;;;;5052690;28;20104;-74
2022/04/20 08:32:11;;;;;;;3.30;1.75;;;;;;;;;;5052711;28;20071;-73
2022/04/20 08:34:37;;;;;;;6.05;1.70;;;;;;;;;;5052712;28;20463;-74
2022/04/20 08:37:03;;;;;;;6.35;1.80;;;;;;;;;;5052749;28;20402;-74
2022/04/20 08:39:29;;;;;;;2.38;1.52;;;;;;;;;;5052640;28;20040;-74
2022/04/20 08:41:55;;;;;;;7.90;1.50;;;;;;;;;;5052462;28;20478;-74
2022/04/20 08:44:28;;;;;;;3.95;1.38;;;;;;;;;;5052559;28;20020;-74
2022/04/20 08:46:59;;;;;;;4.80;1.50;;;;;;;;;;5052575;28;20143;-74
2022/04/20 08:49:25;;;;;;;2.70;1.33;;;;;;;;;;5052395;28;20033;-74
2022/04/20 08:54:37;;;;;;;6.38;1.33;;;;;;;;;;5052622;28;20075;-74
2022/04/20 08:57:16;;;;;;;6.60;1.30;;;;;;;;;;5052241;28;20351;-74
2022/04/20 08:59:46;;;;;;;4.50;1.83;;;;;;;;;;5052366;28;20110;-74
2022/04/20 09:02:13;;;;;;;4.07;1.58;;;;;;;;;;5052168;28;20035;-74
2022/04/20 09:04:39;;;;;;;3.10;1.50;;;;;;;;;;5052016;28;20029;-74
2022/04/20 09:07:09;;;;;;;3.35;1.58;;;;;;;;;;5052127;28;20052;-73
2022/04/20 09:09:36;;;;;;;5.75;1.67;;;;;;;;;;5050638;28;20037;-74
2022/04/20 09:12:03;;;;;;;6.68;1.50;;;;;;;;;;5050644;28;20017;-74
2022/04/20 09:14:30;;;;;;;3.65;1.83;;;;;;;;;;5051949;28;20489;-73
2022/04/20 09:16:56;;;;;;;3.08;1.83;;;;;;;;;;5052017;28;20029;-74
2022/04/20 09:19:26;;;;;;;2.38;1.33;;;;;;;;;;5051935;28;20123;-74
2022/04/20 09:21:55;;;;;;;4.55;1.50;;;;;;;;;;5051886;28;20364;-74
2022/04/20 09:24:21;;;;;;;6.57;1.80;;;;;;;;;;5051790;28;20036;-74
2022/04/20 09:26:57;;;;;;;5.63;1.80;;;;;;;;;;5051777;28;20083;-74
2022/04/20 09:29:23;;;;;;;4.07;1.70;;;;;;;;;;5051771;28;20029;-74
2022/04/20 09:31:53;;;;;;;4.22;1.38;;;;;;;;;;5051608;28;20025;-74
2022/04/20 09:34:25;;;;;;;3.22;1.20;;;;;;;;;;5051970;28;20136;-74
2022/04/20 09:36:55;;;;;;;1.75;1.13;;;;;;;;;;5051660;28;20057;-74
2022/04/20 09:39:22;;;;;;;2.38;1.50;;;;;;;;;;5051804;28;20025;-74
2022/04/20 09:41:58;;;;;;;2.42;1.65;;;;;;;;;;5051543;28;20044;-74
2022/04/20 09:44:24;;;;;;;1.95;1.30;;;;;;;;;;5051673;28;20510;-74
2022/04/20 09:49:37;;;;;;;5.70;1.45;;;;;;;;;;5051627;28;20146;-74
2022/04/20 09:52:10;;;;;;;2.38;1.25;;;;;;;;;;5051612;28;20056;-73
2022/04/20 09:54:37;;;;;;;3.25;1.40;;;;;;;;;;5051659;28;20029;-73
2022/04/20 09:57:08;;;;;;;2.25;1.40;;;;;;;;;;5051522;28;20057;-74
2022/04/20 09:59:34;;;;;;;4.27;1.40;;;;;;;;;;5051647;28;20024;-74
2022/04/20 10:02:10;;;;;;;9.40;2.20;;;;;;;;;;5051587;28;20263;-74
2022/04/20 10:04:39;;;;;;;3.22;1.10;;;;;;;;;;5051554;28;20060;-74
2022/04/20 10:07:05;;;;;;;4.97;1.50;;;;;;;;;;5051414;28;20044;-74
2022/04/20 10:09:31;;;;;;;3.05;1.38;;;;;;;;;;5051472;28;20037;-74
2022/04/20 10:11:58;;;;;;;5.63;1.50;;;;;;;;;;5051448;28;20631;-74
2022/04/20 10:17:11;;;;;;;4.97;1.40;;;;;;;;;;5055440;28;20098;-74
2022/04/20 10:19:39;;;;;;;3.25;1.23;;;;;;;;;;5055237;28;20032;-73
2022/04/20 10:22:05;;;;;;;8.05;1.67;;;;;;;;;;5055125;28;20479;-74
2022/04/20 10:24:34;;;;;;;6.82;1.42;;;;;;;;;;5055168;28;20033;-74
2022/04/20 10:27:04;;;;;;;3.78;1.50;;;;;;;;;;5053734;28;20037;-74
2022/04/20 10:29:30;;;;;;;2.97;1.65;;;;;;;;;;5055186;28;20467;-74
2022/04/20 10:31:59;;;;;;;5.65;1.40;;;;;;;;;;5055168;28;20083;-74
2022/04/20 10:34:26;;;;;;;2.67;1.40;;;;;;;;;;5054940;28;20036;-73
2022/04/20 10:36:58;;;;;;;4.13;1.45;;;;;;;;;;5054962;28;20029;-74
2022/04/20 10:39:27;;;;;;;1.85;1.40;;;;;;;;;;5054897;28;20045;-74
2022/04/20 10:42:11;;;;;;;4.93;1.63;;;;;;;;;;5054679;28;20025;-74
2022/04/20 10:44:49;;;;;;;2.25;1.23;;;;;;;;;;5054771;28;20074;-73
2022/04/20 10:47:22;;;;;;;5.20;1.50;;;;;;;;;;5054787;28;20033;-74
2022/04/20 10:49:50;;;;;;;2.17;1.23;;;;;;;;;;5054632;28;20051;-74
2022/04/20 10:52:24;;;;;;;4.03;1.30;;;;;;;;;;5054560;28;20044;-74
2022/04/20 10:54:51;;;;;;;6.18;1.33;;;;;;;;;;5054765;28;20028;-74
2022/04/20 10:57:17;;;;;;;2.13;1.33;;;;;;;;;;5054348;28;20108;-74
2022/04/20 10:59:43;;;;;;;5.53;1.63;;;;;;;;;;5054451;28;20489;-74
2022/04/20 11:02:11;;;;;;;2.08;1.08;;;;;;;;;;5054484;28;20025;-74
2022/04/20 11:04:39;;;;;;;3.70;1.48;;;;;;;;;;5054526;28;20115;-74
2022/04/20 11:07:06;;;;;;;3.03;1.48;;;;;;;;;;5054524;28;20075;-74
2022/04/20 11:09:52;;;;;;;2.08;1.30;;;;;;;;;;5054414;28;20029;-74
2022/04/20 11:21:09;;;;;;;4.53;1.35;;;;;;;;;;5053979;28;20094;-73
2022/04/20 11:23:54;;;;;;;5.50;1.40;;;;;;;;;;5054061;28;20475;-73
2022/04/20 11:26:20;;;;;;;4.55;1.50;;;;;;;;;;5053927;28;20335;-73
2022/04/20 11:28:47;;;;;;;3.55;1.35;;;;;;;;;;5054058;28;20075;-73
2022/04/20 11:31:14;;;;;;;6.18;1.15;;;;;;;;;;5053812;28;20039;-75
2022/04/20 11:33:40;;;;;;;5.95;1.30;;;;;;;;;;5054047;28;20082;-74
2022/04/20 11:36:06;;;;;;;5.78;1.42;;;;;;;;;;5053714;28;20108;-73
2022/04/20 11:38:42;;;;;;;3.47;1.40;;;;;;;;;;5053878;28;20028;-74
2022/04/20 11:41:10;;;;;;;2.28;1.25;;;;;;;;;;5053532;28;20025;-73
2022/04/20 11:43:37;;;;;;;6.45;1.23;;;;;;;;;;5053748;28;20029;-73
2022/04/20 11:46:03;;;;;;;3.60;1.25;;;;;;;;;;5053681;28;20439;-73
2022/04/20 11:48:29;;;;;;;2.28;1.25;;;;;;;;;;5053739;28;20025;-73
2022/04/20 11:50:56;;;;;;;2.33;1.10;;;;;;;;;;5053426;28;20029;-73
2022/04/20 11:53:31;;;;;;;2.45;1.30;;;;;;;;;;5053500;28;20433;-74
2022/04/20 11:55:57;;;;;;;2.33;0.95;;;;;;;;;;5053243;28;20549;-73
2022/04/20 11:58:23;;;;;;;5.18;1.30;;;;;;;;;;5053525;28;20037;-73
2022/04/20 12:00:58;;;;;;;1.52;1.00;;;;;;;;;;5053505;28;20106;-73
2022/04/20 12:03:24;;;;;;;2.70;1.50;;;;;;;;;;5053364;28;20056;-73
2022/04/20 12:06:06;;;;;;;3.25;1.10;;;;;;;;;;5053128;28;20033;-73
2022/04/20 12:08:33;;;;;;;4.18;1.42;;;;;;;;;;5053415;28;20317;-74
2022/04/20 12:11:03;;;;;;;3.38;1.40;;;;;;;;;;5053132;28;20424;-73
2022/04/20 12:13:29;;;;;;;3.50;1.50;;;;;;;;;;5053098;28;20021;-73
2022/04/20 12:16:00;;;;;;;3.17;1.33;;;;;;;;;;5053164;28;20021;-73
2022/04/20 12:18:27;;;;;;;1.40;1.05;;;;;;;;;;5053168;28;20040;-73
2022/04/20 12:20:53;;;;;;;2.38;1.65;;;;;;;;;;5052808;28;20094;-74
2022/04/20 12:23:19;;;;;;;4.05;1.50;;;;;;;;;;5052761;28;20546;-74
2022/04/20 12:25:52;;;;;;;5.90;1.70;;;;;;;;;;5052582;28;20143;-73
2022/04/20 12:31:08;;;;;;;1.95;1.30;;;;;;;;;;5052769;28;20498;-73
2022/04/20 12:33:34;;;;;;;2.67;1.40;;;;;;;;;;5051491;28;20447;-74
2022/04/20 12:36:01;;;;;;;3.53;1.52;;;;;;;;;;5052657;28;20779;-73
2022/04/20 12:38:27;;;;;;;2.53;1.85;;;;;;;;;;5052299;28;20540;-73
2022/04/20 12:40:54;;;;;;;2.28;1.60;;;;;;;;;;5052601;28;20041;-73
2022/04/20 12:43:20;;;;;;;5.93;2.53;;;;;;;;;;5052602;28;20029;-74
2022/04/20 12:45:46;;;;;;;3.42;1.40;;;;;;;;;;5052382;28;20043;-74
2022/04/20 12:48:12;;;;;;;4.10;2.00;;;;;;;;;;5052546;28;20079;-74
2022/04/20 12:50:43;;;;;;;3.55;1.50;;;;;;;;;;5050969;28;20532;-74
2022/04/20 12:53:09;;;;;;;3.03;1.40;;;;;;;;;;5052281;28;20032;-74
2022/04/20 12:55:35;;;;;;;3.40;1.20;;;;;;;;;;5052154;28;20086;-74
2022/04/20 13:03:40;;;;;;;7.05;1.60;;;;;;;;;;5051995;28;20450;-74
2022/04/20 13:06:11;;;;;;;2.85;1.70;;;;;;;;;;5051938;28;20309;-74
2022/04/20 13:08:41;;;;;;;4.55;1.80;;;;;;;;;;5052014;28;20032;-73
2022/04/20 13:11:07;;;;;;;3.58;2.17;;;;;;;;;;5051784;28;20025;-74
2022/04/20 13:13:33;;;;;;;7.85;3.63;;;;;;;;;;5051914;28;20100;-73
2022/04/20 13:15:59;;;;;;;5.22;2.42;;;;;;;;;;5051896;28;20021;-73
2022/04/20 13:18:26;;;;;;;5.38;2.00;;;;;;;;;;5051956;28;20437;-74
2022/04/20 13:20:52;;;;;;;5.60;2.10;;;;;;;;;;5051611;28;20036;-73
2022/04/20 13:23:18;;;;;;;14.68;2.00;;;;;;;;;;5051692;28;20028;-73
2022/04/20 13:28:29;;;;;;;5.47;1.55;;;;;;;;;;5051836;28;20509;-74
2022/04/20 13:30:56;;;;;;;5.80;1.30;;;;;;;;;;5051594;28;20032;-74
2022/04/20 13:33:22;;;;;;;5.18;1.40;;;;;;;;;;5051769;28;20096;-73
2022/04/20 13:35:51;;;;;;;4.22;1.45;;;;;;;;;;5051505;28;20032;-73
2022/04/20 13:38:17;;;;;;;1.77;1.13;;;;;;;;;;5051753;28;20032;-74
2022/04/20 13:40:43;;;;;;;2.63;1.45;;;;;;;;;;5051423;28;20024;-74
2022/04/20 13:43:10;;;;;;;3.13;1.00;;;;;;;;;;5051386;28;20025;-74
2022/04/20 13:45:36;;;;;;;2.55;1.13;;;;;;;;;;5051540;28;20025;-74
2022/04/20 13:48:02;;;;;;;2.20;1.20;;;;;;;;;;5051485;28;20036;-73
2022/04/20 13:50:28;;;;;;;5.22;1.35;;;;;;;;;;5052719;28;20048;-73
2022/04/20 13:52:54;;;;;;;2.40;1.00;;;;;;;;;;5055544;28;20025;-73
2022/04/20 13:55:21;;;;;;;2.28;1.08;;;;;;;;;;5055742;28;20029;-74
2022/04/20 13:57:47;;;;;;;2.38;1.10;;;;;;;;;;5055371;28;20060;-73
2022/04/20 14:00:14;;;;;;;1.30;0.95;;;;;;;;;;5055372;28;20389;-74
2022/04/20 14:02:40;;;;;;;5.85;1.27;;;;;;;;;;5055122;28;20566;-74
2022/04/20 14:05:08;;;;;;;1.83;0.90;;;;;;;;;;5055657;28;20459;-74
2022/04/20 14:07:34;;;;;;;2.95;1.10;;;;;;;;;;5055522;28;20028;-74
2022/04/20 14:10:00;;;;;;;1.88;1.05;;;;;;;;;;5055399;28;20471;-74
2022/04/20 14:12:26;;;;;;;1.77;0.90;;;;;;;;;;5055340;28;20021;-73
2022/04/20 14:14:52;;;;;;;2.33;1.20;;;;;;;;;;5042595;28;20037;-74
2022/04/20 14:17:19;;;;;;;2.28;0.98;;;;;;;;;;5035356;28;20027;-74
2022/04/20 14:19:46;;;;;;;2.22;0.80;;;;;;;;;;5037015;28;20553;-73
2022/04/20 14:22:15;;;;;;;2.13;0.90;;;;;;;;;;5055130;28;20478;-73
2022/04/20 14:24:42;;;;;;;2.63;0.80;;;;;;;;;;5054946;28;20056;-72
2022/04/20 14:32:43;;;;;;;4.18;1.05;;;;;;;;;;5052630;28;20035;-73
2022/04/20 14:35:12;;;;;;;2.13;0.80;;;;;;;;;;5052503;28;20033;-74
2022/04/20 14:37:38;;;;;;;3.70;1.10;;;;;;;;;;5052441;28;20029;-73
2022/04/20 14:40:05;;;;;;;1.30;0.85;;;;;;;;;;5052157;28;20025;-73
2022/04/20 14:42:31;;;;;;;4.35;1.30;;;;;;;;;;5052265;28;20036;-73
2022/04/20 14:44:57;;;;;;;1.83;1.10;;;;;;;;;;5052290;28;20894;-74
2022/04/20 14:47:23;;;;;;;7.28;0.98;;;;;;;;;;5052287;28;20495;-74
2022/04/20 14:49:49;;;;;;;3.17;1.70;;;;;;;;;;5052267;28;20037;-74
2022/04/20 14:52:16;;;;;;;4.05;1.20;;;;;;;;;;5052164;28;20029;-74
2022/04/20 14:54:43;;;;;;;2.08;1.35;;;;;;;;;;5052014;28;20096;-73
2022/04/20 14:57:09;;;;;;;3.88;1.38;;;;;;;;;;5051962;28;20510;-74
2022/04/20 14:59:36;;;;;;;4.97;1.55;;;;;;;;;;5051973;28;20576;-75
2022/04/20 15:02:02;;;;;;;2.40;1.00;;;;;;;;;;5051675;28;20072;-73
2022/04/20 15:04:29;;;;;;;5.10;0.90;;;;;;;;;;5051743;28;20049;-74
2022/04/20 15:06:55;;;;;;;3.35;1.00;;;;;;;;;;5052958;28;20044;-74
2022/04/20 15:09:22;;;;;;;2.97;0.95;;;;;;;;;;5054115;28;20510;-74
2022/04/20 15:11:48;;;;;;;2.85;1.02;;;;;;;;;;5054155;28;20078;-73
2022/04/20 15:14:14;;;;;;;3.22;1.10;;;;;;;;;;5053988;28;20159;-74
2022/04/20 15:16:40;;;;;;;4.35;1.27;;;;;;;;;;5054105;28;20028;-74
2022/04/20 15:19:06;;;;;;;2.15;1.25;;;;;;;;;;5053623;28;20059;-75
2022/04/20 15:21:32;;;;;;;5.18;1.33;;;;;;;;;;5053048;28;20021;-74
2022/04/20 15:23:59;;;;;;;4.97;1.48;;;;;;;;;;5052971;28;20021;-74
2022/04/20 15:26:25;;;;;;;8.27;1.58;;;;;;;;;;5053033;28;20025;-74
2022/04/20 15:28:52;;;;;;;2.70;1.20;;;;;;;;;;5053561;28;20063;-74
2022/04/20 15:31:19;;;;;;;1.85;1.10;;;;;;;;;;5053410;28;20029;-74